sensor_id;sensor_type;location;lat;lon;timestamp;pressure;altitude;pressure_sealevel;temperature;humidity
72570;BME280;60594;50.204;8.844;2023-02-28T00:01:28;101127.31;;;0.41;72.47
72570;BME280;60594;50.204;8.844;2023-02-28T00:03:55;101126.69;;;0.32;72.62
72570;BME280;60594;50.204;8.844;2023-02-28T00:06:22;101128.38;;;0.34;72.54
72570;BME280;60594;50.204;8.844;2023-02-28T00:08:49;101121.78;;;0.17;73.52
72570;BME280;60594;50.204;8.844;2023-02-28T00:11:16;101124.63;;;0.08;74.25
72570;BME280;60594;50.204;8.844;2023-02-28T00:13:45;101122.25;;;-0.03;74.68
72570;BME280;60594;50.204;8.844;2023-02-28T00:16:17;101125.75;;;-0.04;75.21
72570;BME280;60594;50.204;8.844;2023-02-28T00:18:44;101122.88;;;0.08;74.77
72570;BME280;60594;50.204;8.844;2023-02-28T00:21:11;101130.06;;;0.00;75.05
72570;BME280;60594;50.204;8.844;2023-02-28T00:23:37;101128.63;;;-0.15;75.22
72570;BME280;60594;50.204;8.844;2023-02-28T00:26:04;101128.47;;;-0.07;76.44
72570;BME280;60594;50.204;8.844;2023-02-28T00:28:31;101123.22;;;-0.07;76.40
72570;BME280;60594;50.204;8.844;2023-02-28T00:30:59;101127.31;;;0.04;75.77
72570;BME280;60594;50.204;8.844;2023-02-28T00:33:27;101125.50;;;0.08;75.24
72570;BME280;60594;50.204;8.844;2023-02-28T00:36:04;101128.22;;;0.03;75.56
72570;BME280;60594;50.204;8.844;2023-02-28T00:38:32;101122.34;;;-0.08;76.45
72570;BME280;60594;50.204;8.844;2023-02-28T00:41:00;101126.50;;;0.03;76.32
72570;BME280;60594;50.204;8.844;2023-02-28T00:43:32;101119.34;;;0.09;76.41
72570;BME280;60594;50.204;8.844;2023-02-28T00:45:58;101125.72;;;-0.03;77.23
72570;BME280;60594;50.204;8.844;2023-02-28T00:48:25;101123.19;;;-0.06;77.37
72570;BME280;60594;50.204;8.844;2023-02-28T00:50:51;101130.50;;;-0.20;78.99
72570;BME280;60594;50.204;8.844;2023-02-28T00:53:18;101128.59;;;-0.13;78.56
72570;BME280;60594;50.204;8.844;2023-02-28T00:55:44;101122.44;;;-0.12;78.07
72570;BME280;60594;50.204;8.844;2023-02-28T00:58:11;101128.50;;;-0.09;78.92
72570;BME280;60594;50.204;8.844;2023-02-28T01:00:37;101130.31;;;-0.12;77.87
72570;BME280;60594;50.204;8.844;2023-02-28T01:03:04;101125.34;;;-0.24;79.04
72570;BME280;60594;50.204;8.844;2023-02-28T01:05:30;101132.03;;;-0.52;80.33
72570;BME280;60594;50.204;8.844;2023-02-28T01:07:57;101124.75;;;-0.37;80.28
72570;BME280;60594;50.204;8.844;2023-02-28T01:10:24;101121.81;;;-0.23;79.83
72570;BME280;60594;50.204;8.844;2023-02-28T01:12:51;101115.63;;;-0.19;79.56
72570;BME280;60594;50.204;8.844;2023-02-28T01:15:17;101130.50;;;-0.20;79.96
72570;BME280;60594;50.204;8.844;2023-02-28T01:17:45;101116.72;;;-0.28;80.16
72570;BME280;60594;50.204;8.844;2023-02-28T01:20:11;101122.09;;;-0.35;79.86
72570;BME280;60594;50.204;8.844;2023-02-28T01:22:38;101122.09;;;-0.35;79.58
72570;BME280;60594;50.204;8.844;2023-02-28T01:25:04;101109.22;;;-0.44;79.80
72570;BME280;60594;50.204;8.844;2023-02-28T01:27:33;101116.84;;;-0.35;80.32
72570;BME280;60594;50.204;8.844;2023-02-28T01:29:59;101118.84;;;-0.46;79.56
72570;BME280;60594;50.204;8.844;2023-02-28T01:32:26;101120.53;;;-0.44;80.01
72570;BME280;60594;50.204;8.844;2023-02-28T01:34:52;101109.13;;;-0.41;80.18
72570;BME280;60594;50.204;8.844;2023-02-28T01:37:19;101110.97;;;-0.46;80.39
72570;BME280;60594;50.204;8.844;2023-02-28T01:39:45;101106.88;;;-0.59;80.68
72570;BME280;60594;50.204;8.844;2023-02-28T01:42:12;101097.41;;;-0.65;80.43
72570;BME280;60594;50.204;8.844;2023-02-28T01:45:10;101106.75;;;-0.52;80.10
72570;BME280;60594;50.204;8.844;2023-02-28T01:47:43;101104.72;;;-0.39;78.92
72570;BME280;60594;50.204;8.844;2023-02-28T01:50:16;101095.22;;;-0.43;78.22
72570;BME280;60594;50.204;8.844;2023-02-28T01:52:45;101095.31;;;-0.48;78.96
72570;BME280;60594;50.204;8.844;2023-02-28T01:55:14;101099.78;;;-0.53;79.03
72570;BME280;60594;50.204;8.844;2023-02-28T01:57:46;101099.97;;;-0.62;79.82
72570;BME280;60594;50.204;8.844;2023-02-28T02:00:17;101101.78;;;-0.65;78.78
72570;BME280;60594;50.204;8.844;2023-02-28T02:02:49;101090.72;;;-0.79;79.56
72570;BME280;60594;50.204;8.844;2023-02-28T02:05:23;101097.06;;;-0.91;80.08
72570;BME280;60594;50.204;8.844;2023-02-28T02:07:54;101099.78;;;-0.95;80.31
72570;BME280;60594;50.204;8.844;2023-02-28T02:10:45;101090.72;;;-0.78;79.05
72570;BME280;60594;50.204;8.844;2023-02-28T02:13:32;101098.13;;;-0.99;79.84
72570;BME280;60594;50.204;8.844;2023-02-28T02:16:04;101096.06;;;-0.84;79.82
72570;BME280;60594;50.204;8.844;2023-02-28T02:18:52;101088.47;;;-0.97;79.72
72570;BME280;60594;50.204;8.844;2023-02-28T02:30:06;101087.53;;;-0.93;79.38
72570;BME280;60594;50.204;8.844;2023-02-28T02:36:00;101087.56;;;-0.96;79.33
72570;BME280;60594;50.204;8.844;2023-02-28T02:38:45;101085.56;;;-0.82;78.29
72570;BME280;60594;50.204;8.844;2023-02-28T02:41:34;101088.97;;;-0.77;77.63
72570;BME280;60594;50.204;8.844;2023-02-28T02:44:12;101086.16;;;-0.68;77.06
72570;BME280;60594;50.204;8.844;2023-02-28T02:46:43;101089.81;;;-0.77;77.29
72570;BME280;60594;50.204;8.844;2023-02-28T02:49:20;101084.59;;;-0.78;77.43
72570;BME280;60594;50.204;8.844;2023-02-28T02:51:48;101079.31;;;-0.75;77.04
72570;BME280;60594;50.204;8.844;2023-02-28T02:54:28;101093.56;;;-0.88;77.83
72570;BME280;60594;50.204;8.844;2023-02-28T02:57:07;101090.91;;;-0.87;77.90
72570;BME280;60594;50.204;8.844;2023-02-28T02:59:36;101093.34;;;-0.79;77.36
72570;BME280;60594;50.204;8.844;2023-02-28T03:02:08;101091.59;;;-0.77;76.95
72570;BME280;60594;50.204;8.844;2023-02-28T03:04:42;101092.44;;;-0.78;76.81
72570;BME280;60594;50.204;8.844;2023-02-28T03:07:10;101086.19;;;-0.71;77.31
72570;BME280;60594;50.204;8.844;2023-02-28T03:09:37;101097.16;;;-0.95;77.79
72570;BME280;60594;50.204;8.844;2023-02-28T03:12:08;101088.19;;;-0.82;77.11
72570;BME280;60594;50.204;8.844;2023-02-28T03:15:04;101094.63;;;-1.00;77.62
72570;BME280;60594;50.204;8.844;2023-02-28T03:17:48;101089.34;;;-0.97;77.55
72570;BME280;60594;50.204;8.844;2023-02-28T03:23:29;101093.53;;;-0.87;77.93
72570;BME280;60594;50.204;8.844;2023-02-28T03:26:11;101090.97;;;-0.90;77.16
72570;BME280;60594;50.204;8.844;2023-02-28T03:29:27;101090.28;;;-0.99;76.84
72570;BME280;60594;50.204;8.844;2023-02-28T03:31:59;101086.50;;;-0.86;76.35
72570;BME280;60594;50.204;8.844;2023-02-28T03:34:33;101075.34;;;-0.94;76.21
72570;BME280;60594;50.204;8.844;2023-02-28T03:37:08;101087.78;;;-1.05;77.11
72570;BME280;60594;50.204;8.844;2023-02-28T03:39:43;101089.28;;;-0.92;76.51
72570;BME280;60594;50.204;8.844;2023-02-28T03:42:14;101082.47;;;-1.01;76.62
72570;BME280;60594;50.204;8.844;2023-02-28T03:45:04;101081.31;;;-0.88;76.19
72570;BME280;60594;50.204;8.844;2023-02-28T03:47:39;101090.34;;;-1.02;75.69
72570;BME280;60594;50.204;8.844;2023-02-28T03:50:12;101074.78;;;-1.10;76.56
72570;BME280;60594;50.204;8.844;2023-02-28T03:52:48;101079.16;;;-1.10;76.68
72570;BME280;60594;50.204;8.844;2023-02-28T03:55:16;101079.19;;;-1.12;75.96
72570;BME280;60594;50.204;8.844;2023-02-28T04:00:21;101095.06;;;-1.22;77.14
72570;BME280;60594;50.204;8.844;2023-02-28T04:02:50;101094.25;;;-1.26;76.67
72570;BME280;60594;50.204;8.844;2023-02-28T04:05:20;101083.78;;;-1.24;76.32
72570;BME280;60594;50.204;8.844;2023-02-28T04:07:47;101085.38;;;-1.16;76.22
72570;BME280;60594;50.204;8.844;2023-02-28T04:10:15;101092.97;;;-1.04;75.20
72570;BME280;60594;50.204;8.844;2023-02-28T04:12:42;101093.84;;;-1.03;75.82
72570;BME280;60594;50.204;8.844;2023-02-28T04:15:08;101098.28;;;-1.08;75.51
72570;BME280;60594;50.204;8.844;2023-02-28T04:17:36;101097.44;;;-1.09;75.40
72570;BME280;60594;50.204;8.844;2023-02-28T04:20:04;101093.84;;;-1.03;75.34
72570;BME280;60594;50.204;8.844;2023-02-28T04:22:35;101075.72;;;-1.14;76.32
72570;BME280;60594;50.204;8.844;2023-02-28T04:25:03;101095.47;;;-0.98;76.27
72570;BME280;60594;50.204;8.844;2023-02-28T04:27:30;101090.34;;;-1.04;75.59
72570;BME280;60594;50.204;8.844;2023-02-28T04:29:56;101092.94;;;-1.02;74.95
72570;BME280;60594;50.204;8.844;2023-02-28T04:32:22;101088.50;;;-0.99;77.02
72570;BME280;60594;50.204;8.844;2023-02-28T04:34:49;101090.19;;;-0.96;74.84
72570;BME280;60594;50.204;8.844;2023-02-28T04:37:15;101081.75;;;-1.09;75.19
72570;BME280;60594;50.204;8.844;2023-02-28T04:39:42;101089.50;;;-1.06;75.77
72570;BME280;60594;50.204;8.844;2023-02-28T04:42:09;101092.91;;;-0.99;75.54
72570;BME280;60594;50.204;8.844;2023-02-28T04:44:37;101091.91;;;-0.94;74.69
72570;BME280;60594;50.204;8.844;2023-02-28T04:47:03;101061.50;;;-0.99;74.69
72570;BME280;60594;50.204;8.844;2023-02-28T04:49:29;101090.13;;;-0.92;76.01
72570;BME280;60594;50.204;8.844;2023-02-28T04:51:56;101070.13;;;-0.96;75.56
72570;BME280;60594;50.204;8.844;2023-02-28T04:54:22;101085.81;;;-0.94;75.39
72570;BME280;60594;50.204;8.844;2023-02-28T04:56:48;101073.84;;;-1.07;75.30
72570;BME280;60594;50.204;8.844;2023-02-28T04:59:16;101077.50;;;-1.14;75.65
72570;BME280;60594;50.204;8.844;2023-02-28T05:01:46;101085.06;;;-1.01;75.08
72570;BME280;60594;50.204;8.844;2023-02-28T05:04:13;101093.63;;;-0.93;74.82
72570;BME280;60594;50.204;8.844;2023-02-28T05:06:40;101094.41;;;-0.89;74.30
72570;BME280;60594;50.204;8.844;2023-02-28T05:09:06;101093.59;;;-0.91;75.21
72570;BME280;60594;50.204;8.844;2023-02-28T05:11:33;101089.22;;;-0.91;74.62
72570;BME280;60594;50.204;8.844;2023-02-28T05:14:02;101084.97;;;-0.96;75.56
72570;BME280;60594;50.204;8.844;2023-02-28T05:16:30;101086.34;;;-0.77;74.95
72570;BME280;60594;50.204;8.844;2023-02-28T05:18:57;101106.38;;;-0.76;73.97
72570;BME280;60594;50.204;8.844;2023-02-28T05:23:52;101099.47;;;-0.79;74.92
72570;BME280;60594;50.204;8.844;2023-02-28T05:26:19;101101.97;;;-0.74;73.83
72570;BME280;60594;50.204;8.844;2023-02-28T05:28:45;101107.88;;;-0.65;73.47
72570;BME280;60594;50.204;8.844;2023-02-28T05:31:12;101109.00;;;-0.76;73.76
72570;BME280;60594;50.204;8.844;2023-02-28T05:33:39;101103.44;;;-1.04;74.93
72570;BME280;60594;50.204;8.844;2023-02-28T05:36:06;101106.72;;;-0.93;75.39
72570;BME280;60594;50.204;8.844;2023-02-28T05:38:33;101111.78;;;-0.85;74.99
72570;BME280;60594;50.204;8.844;2023-02-28T05:40:59;101109.31;;;-0.93;74.63
72570;BME280;60594;50.204;8.844;2023-02-28T05:43:26;101108.59;;;-0.99;75.35
72570;BME280;60594;50.204;8.844;2023-02-28T05:45:52;101110.31;;;-0.98;74.18
72570;BME280;60594;50.204;8.844;2023-02-28T05:48:19;101105.88;;;-0.96;75.14
72570;BME280;60594;50.204;8.844;2023-02-28T05:50:45;101103.50;;;-1.07;75.46
72570;BME280;60594;50.204;8.844;2023-02-28T05:53:12;101116.50;;;-1.04;74.26
72570;BME280;60594;50.204;8.844;2023-02-28T05:55:38;101098.19;;;-1.02;75.20
72570;BME280;60594;50.204;8.844;2023-02-28T05:58:07;101106.97;;;-1.06;75.06
72570;BME280;60594;50.204;8.844;2023-02-28T06:00:34;101107.94;;;-1.10;75.09
72570;BME280;60594;50.204;8.844;2023-02-28T06:03:01;101114.88;;;-1.09;75.80
72570;BME280;60594;50.204;8.844;2023-02-28T06:05:28;101110.63;;;-1.15;75.15
72570;BME280;60594;50.204;8.844;2023-02-28T06:07:54;101103.78;;;-1.22;76.33
72570;BME280;60594;50.204;8.844;2023-02-28T06:10:21;101113.91;;;-1.04;74.62
72570;BME280;60594;50.204;8.844;2023-02-28T06:12:47;101116.88;;;-1.23;75.69
72570;BME280;60594;50.204;8.844;2023-02-28T06:15:15;101117.63;;;-1.18;74.87
72570;BME280;60594;50.204;8.844;2023-02-28T06:17:43;101110.66;;;-1.18;75.00
72570;BME280;60594;50.204;8.844;2023-02-28T06:20:10;101115.16;;;-1.24;75.07
72570;BME280;60594;50.204;8.844;2023-02-28T06:22:39;101120.34;;;-1.21;75.05
72570;BME280;60594;50.204;8.844;2023-02-28T06:25:06;101130.59;;;-1.12;74.42
72570;BME280;60594;50.204;8.844;2023-02-28T06:27:33;101129.63;;;-1.07;75.07
72570;BME280;60594;50.204;8.844;2023-02-28T06:29:59;101124.63;;;-1.19;75.11
72570;BME280;60594;50.204;8.844;2023-02-28T06:32:26;101134.91;;;-1.10;74.57
72570;BME280;60594;50.204;8.844;2023-02-28T06:34:52;101135.78;;;-1.09;74.41
72570;BME280;60594;50.204;8.844;2023-02-28T06:37:19;101123.78;;;-1.21;73.99
72570;BME280;60594;50.204;8.844;2023-02-28T06:39:46;101144.59;;;-1.13;74.36
72570;BME280;60594;50.204;8.844;2023-02-28T06:42:12;101138.31;;;-1.03;74.34
72570;BME280;60594;50.204;8.844;2023-02-28T06:44:39;101141.06;;;-1.12;74.31
72570;BME280;60594;50.204;8.844;2023-02-28T06:47:06;101139.19;;;-1.06;73.98
72570;BME280;60594;50.204;8.844;2023-02-28T06:49:34;101149.25;;;-0.83;72.99
72570;BME280;60594;50.204;8.844;2023-02-28T06:52:02;101153.78;;;-0.91;73.11
72570;BME280;60594;50.204;8.844;2023-02-28T06:54:28;101156.41;;;-0.93;73.85
72570;BME280;60594;50.204;8.844;2023-02-28T06:56:57;101152.88;;;-0.90;73.75
72570;BME280;60594;50.204;8.844;2023-02-28T06:59:24;101158.81;;;-0.82;73.46
72570;BME280;60594;50.204;8.844;2023-02-28T07:01:50;101161.19;;;-0.70;72.23
72570;BME280;60594;50.204;8.844;2023-02-28T07:04:17;101167.06;;;-0.59;72.46
72570;BME280;60594;50.204;8.844;2023-02-28T07:06:43;101163.75;;;-0.67;73.20
72570;BME280;60594;50.204;8.844;2023-02-28T07:09:10;101156.78;;;-0.67;72.61
72570;BME280;60594;50.204;8.844;2023-02-28T07:11:37;101172.41;;;-0.62;73.24
72570;BME280;60594;50.204;8.844;2023-02-28T07:14:03;101169.88;;;-0.68;72.43
72570;BME280;60594;50.204;8.844;2023-02-28T07:16:30;101167.19;;;-0.64;73.70
72570;BME280;60594;50.204;8.844;2023-02-28T07:18:56;101162.88;;;-0.66;73.04
72570;BME280;60594;50.204;8.844;2023-02-28T07:21:23;101175.72;;;-0.54;73.36
72570;BME280;60594;50.204;8.844;2023-02-28T07:23:51;101172.19;;;-0.53;73.00
72570;BME280;60594;50.204;8.844;2023-02-28T07:26:19;101165.97;;;-0.46;72.06
72570;BME280;60594;50.204;8.844;2023-02-28T07:28:47;101172.72;;;-0.35;70.96
72570;BME280;60594;50.204;8.844;2023-02-28T07:31:15;101165.75;;;-0.37;70.61
72570;BME280;60594;50.204;8.844;2023-02-28T07:33:43;101164.09;;;-0.41;71.41
72570;BME280;60594;50.204;8.844;2023-02-28T07:36:13;101162.44;;;-0.45;71.98
72570;BME280;60594;50.204;8.844;2023-02-28T07:38:43;101167.66;;;-0.45;72.17
72570;BME280;60594;50.204;8.844;2023-02-28T07:41:10;101164.03;;;-0.38;71.58
72570;BME280;60594;50.204;8.844;2023-02-28T07:43:37;101160.34;;;-0.28;71.98
72570;BME280;60594;50.204;8.844;2023-02-28T07:46:09;101160.28;;;-0.25;71.61
72570;BME280;60594;50.204;8.844;2023-02-28T07:48:36;101159.50;;;-0.30;70.98
72570;BME280;60594;50.204;8.844;2023-02-28T07:51:03;101161.09;;;-0.23;71.18
72570;BME280;60594;50.204;8.844;2023-02-28T07:53:30;101164.31;;;-0.11;69.58
72570;BME280;60594;50.204;8.844;2023-02-28T07:56:01;101173.97;;;-0.11;70.68
72570;BME280;60594;50.204;8.844;2023-02-28T07:58:29;101167.75;;;-0.07;69.48
72570;BME280;60594;50.204;8.844;2023-02-28T08:00:57;101169.22;;;0.04;70.76
72570;BME280;60594;50.204;8.844;2023-02-28T08:03:23;101173.56;;;0.05;69.63
72570;BME280;60594;50.204;8.844;2023-02-28T08:05:51;101170.63;;;0.21;68.13
72570;BME280;60594;50.204;8.844;2023-02-28T08:08:18;101168.09;;;0.16;69.69
72570;BME280;60594;50.204;8.844;2023-02-28T08:10:45;101168.78;;;0.24;69.48
72570;BME280;60594;50.204;8.844;2023-02-28T08:13:11;101162.28;;;0.40;66.45
72570;BME280;60594;50.204;8.844;2023-02-28T08:15:41;101178.03;;;0.39;66.65
72570;BME280;60594;50.204;8.844;2023-02-28T08:18:09;101170.03;;;0.45;66.76
72570;BME280;60594;50.204;8.844;2023-02-28T08:20:36;101168.72;;;0.62;65.38
72570;BME280;60594;50.204;8.844;2023-02-28T08:23:02;101171.91;;;0.75;65.32
72570;BME280;60594;50.204;8.844;2023-02-28T08:25:29;101172.66;;;1.13;64.16
72570;BME280;60594;50.204;8.844;2023-02-28T08:27:56;101168.38;;;1.43;63.08
72570;BME280;60594;50.204;8.844;2023-02-28T08:30:22;101162.31;;;1.70;62.87
72570;BME280;60594;50.204;8.844;2023-02-28T08:32:49;101156.28;;;1.95;60.05
72570;BME280;60594;50.204;8.844;2023-02-28T08:35:16;101163.78;;;2.09;59.11
72570;BME280;60594;50.204;8.844;2023-02-28T08:37:42;101160.38;;;2.33;59.76
72570;BME280;60594;50.204;8.844;2023-02-28T08:40:10;101170.00;;;2.60;58.97
72570;BME280;60594;50.204;8.844;2023-02-28T08:42:37;101153.69;;;2.76;57.79
72570;BME280;60594;50.204;8.844;2023-02-28T08:45:04;101157.34;;;2.97;56.77
72570;BME280;60594;50.204;8.844;2023-02-28T08:47:31;101165.56;;;3.14;56.13
72570;BME280;60594;50.204;8.844;2023-02-28T08:49:58;101173.63;;;3.34;55.44
72570;BME280;60594;50.204;8.844;2023-02-28T08:52:24;101166.38;;;3.40;54.48
72570;BME280;60594;50.204;8.844;2023-02-28T08:54:51;101162.09;;;3.61;53.87
72570;BME280;60594;50.204;8.844;2023-02-28T08:57:17;101165.41;;;3.66;52.73
72570;BME280;60594;50.204;8.844;2023-02-28T08:59:44;101166.22;;;3.91;52.17
72570;BME280;60594;50.204;8.844;2023-02-28T09:02:14;101151.75;;;4.03;50.30
72570;BME280;60594;50.204;8.844;2023-02-28T09:04:41;101164.88;;;4.04;50.68
72570;BME280;60594;50.204;8.844;2023-02-28T09:07:07;101164.56;;;4.33;51.11
72570;BME280;60594;50.204;8.844;2023-02-28T09:09:35;101166.69;;;4.47;50.68
72570;BME280;60594;50.204;8.844;2023-02-28T09:12:02;101159.91;;;4.61;51.79
72570;BME280;60594;50.204;8.844;2023-02-28T09:14:28;101157.72;;;4.51;49.23
72570;BME280;60594;50.204;8.844;2023-02-28T09:16:55;101164.34;;;4.82;50.43
72570;BME280;60594;50.204;8.844;2023-02-28T09:19:22;101159.34;;;4.75;47.50
72570;BME280;60594;50.204;8.844;2023-02-28T09:21:48;101161.00;;;4.99;49.40
72570;BME280;60594;50.204;8.844;2023-02-28T09:24:18;101161.28;;;5.13;48.64
72570;BME280;60594;50.204;8.844;2023-02-28T09:26:46;101152.00;;;5.23;47.52
72570;BME280;60594;50.204;8.844;2023-02-28T09:29:13;101151.72;;;5.49;48.08
72570;BME280;60594;50.204;8.844;2023-02-28T09:31:40;101153.53;;;5.48;46.90
72570;BME280;60594;50.204;8.844;2023-02-28T09:34:07;101153.31;;;5.53;47.32
72570;BME280;60594;50.204;8.844;2023-02-28T09:36:34;101148.56;;;5.41;45.82
72570;BME280;60594;50.204;8.844;2023-02-28T09:39:01;101146.75;;;5.81;46.78
72570;BME280;60594;50.204;8.844;2023-02-28T09:41:38;101144.97;;;6.00;45.61
72570;BME280;60594;50.204;8.844;2023-02-28T09:44:17;101154.53;;;5.26;46.59
72570;BME280;60594;50.204;8.844;2023-02-28T09:46:50;101158.63;;;5.33;46.94
72570;BME280;60594;50.204;8.844;2023-02-28T09:49:23;101156.19;;;5.08;47.99
72570;BME280;60594;50.204;8.844;2023-02-28T09:52:01;101157.81;;;4.91;47.77
72570;BME280;60594;50.204;8.844;2023-02-28T09:54:30;101155.31;;;5.08;48.57
72570;BME280;60594;50.204;8.844;2023-02-28T09:57:01;101151.53;;;5.13;47.13
72570;BME280;60594;50.204;8.844;2023-02-28T10:04:59;101155.19;;;5.11;45.46
72570;BME280;60594;50.204;8.844;2023-02-28T10:10:43;101161.19;;;3.85;51.55
72570;BME280;60594;50.204;8.844;2023-02-28T10:13:39;101155.91;;;3.85;50.68
72570;BME280;60594;50.204;8.844;2023-02-28T10:16:32;101153.72;;;3.73;48.41
72570;BME280;60594;50.204;8.844;2023-02-28T10:19:16;101156.25;;;4.44;49.23
72570;BME280;60594;50.204;8.844;2023-02-28T10:22:24;101154.09;;;4.53;48.97
72570;BME280;60594;50.204;8.844;2023-02-28T10:24:55;101149.38;;;4.61;48.50
72570;BME280;60594;50.204;8.844;2023-02-28T10:27:30;101163.44;;;4.62;49.16
72570;BME280;60594;50.204;8.844;2023-02-28T10:29:59;101162.63;;;4.60;49.81
72570;BME280;60594;50.204;8.844;2023-02-28T10:32:30;101155.91;;;4.94;49.22
72570;BME280;60594;50.204;8.844;2023-02-28T10:37:47;101151.75;;;4.46;46.00
72570;BME280;60594;50.204;8.844;2023-02-28T10:42:56;101160.03;;;4.58;49.73
72570;BME280;60594;50.204;8.844;2023-02-28T10:45:23;101151.00;;;4.64;50.45
72570;BME280;60594;50.204;8.844;2023-02-28T10:47:57;101153.00;;;4.59;46.50
72570;BME280;60594;50.204;8.844;2023-02-28T10:53:30;101158.25;;;4.80;45.48
72570;BME280;60594;50.204;8.844;2023-02-28T10:59:01;101154.78;;;4.37;47.52
72570;BME280;60594;50.204;8.844;2023-02-28T11:03:59;101146.78;;;4.38;48.94
72570;BME280;60594;50.204;8.844;2023-02-28T11:06:29;101146.91;;;5.18;49.86
72570;BME280;60594;50.204;8.844;2023-02-28T11:08:59;101145.63;;;5.87;47.25
72570;BME280;60594;50.204;8.844;2023-02-28T11:11:29;101141.22;;;6.41;45.51
72570;BME280;60594;50.204;8.844;2023-02-28T11:14:03;101130.47;;;6.80;45.30
72570;BME280;60594;50.204;8.844;2023-02-28T11:16:33;101136.03;;;6.92;46.89
72570;BME280;60594;50.204;8.844;2023-02-28T11:19:03;101131.63;;;6.91;44.60
72570;BME280;60594;50.204;8.844;2023-02-28T11:21:36;101125.25;;;7.13;45.41
72570;BME280;60594;50.204;8.844;2023-02-28T11:24:23;101129.53;;;7.15;43.61
72570;BME280;60594;50.204;8.844;2023-02-28T11:26:51;101130.03;;;7.23;43.67
72570;BME280;60594;50.204;8.844;2023-02-28T11:29:30;101130.09;;;7.22;42.53
72570;BME280;60594;50.204;8.844;2023-02-28T11:32:18;101118.06;;;7.32;43.21
72570;BME280;60594;50.204;8.844;2023-02-28T11:34:47;101126.28;;;7.27;42.50
72570;BME280;60594;50.204;8.844;2023-02-28T11:37:28;101124.63;;;6.90;42.56
72570;BME280;60594;50.204;8.844;2023-02-28T11:39:55;101116.91;;;7.03;42.84
72570;BME280;60594;50.204;8.844;2023-02-28T11:48:16;101106.78;;;7.28;44.41
72570;BME280;60594;50.204;8.844;2023-02-28T11:51:06;101115.06;;;6.88;41.12
72570;BME280;60594;50.204;8.844;2023-02-28T11:56:38;101106.78;;;6.77;43.22
72570;BME280;60594;50.204;8.844;2023-02-28T11:59:46;101110.28;;;6.94;43.88
72570;BME280;60594;50.204;8.844;2023-02-28T12:02:28;101105.00;;;7.12;46.06
72570;BME280;60594;50.204;8.844;2023-02-28T12:11:06;101112.66;;;6.48;42.01
72570;BME280;60594;50.204;8.844;2023-02-28T12:13:55;101114.91;;;6.38;42.58
72570;BME280;60594;50.204;8.844;2023-02-28T12:16:37;101118.34;;;6.22;43.09
72570;BME280;60594;50.204;8.844;2023-02-28T12:19:12;101111.31;;;5.85;46.36
72570;BME280;60594;50.204;8.844;2023-02-28T12:21:52;101112.03;;;5.69;45.94
72570;BME280;60594;50.204;8.844;2023-02-28T12:24:39;101110.50;;;5.83;45.32
72570;BME280;60594;50.204;8.844;2023-02-28T12:27:14;101103.88;;;5.93;45.41
72570;BME280;60594;50.204;8.844;2023-02-28T12:29:49;101101.78;;;6.00;45.66
72570;BME280;60594;50.204;8.844;2023-02-28T12:32:26;101098.88;;;6.23;46.43
72570;BME280;60594;50.204;8.844;2023-02-28T12:37:50;101101.78;;;6.71;46.13
72570;BME280;60594;50.204;8.844;2023-02-28T12:40:21;101098.47;;;6.84;44.93
72570;BME280;60594;50.204;8.844;2023-02-28T12:42:56;101099.00;;;6.57;43.98
72570;BME280;60594;50.204;8.844;2023-02-28T12:45:52;101104.84;;;6.28;45.23
72570;BME280;60594;50.204;8.844;2023-02-28T12:48:53;101098.19;;;6.19;46.01
72570;BME280;60594;50.204;8.844;2023-02-28T12:51:24;101107.91;;;6.19;44.73
72570;BME280;60594;50.204;8.844;2023-02-28T12:54:04;101096.56;;;6.17;44.64
72570;BME280;60594;50.204;8.844;2023-02-28T13:05:01;101096.97;;;6.26;47.16
72570;BME280;60594;50.204;8.844;2023-02-28T13:10:18;101090.03;;;6.24;44.31
72570;BME280;60594;50.204;8.844;2023-02-28T13:12:53;101086.38;;;6.26;43.74
72570;BME280;60594;50.204;8.844;2023-02-28T13:15:26;101094.59;;;6.20;46.55
72570;BME280;60594;50.204;8.844;2023-02-28T13:17:56;101083.31;;;6.17;45.65
72570;BME280;60594;50.204;8.844;2023-02-28T13:20:27;101079.97;;;6.13;47.52
72570;BME280;60594;50.204;8.844;2023-02-28T13:22:56;101085.22;;;5.96;45.14
72570;BME280;60594;50.204;8.844;2023-02-28T13:28:01;101079.03;;;6.14;46.88
72570;BME280;60594;50.204;8.844;2023-02-28T13:33:28;101084.06;;;6.02;46.18
72570;BME280;60594;50.204;8.844;2023-02-28T13:38:45;101082.91;;;6.07;44.44
72570;BME280;60594;50.204;8.844;2023-02-28T13:41:40;101078.19;;;5.95;46.67
72570;BME280;60594;50.204;8.844;2023-02-28T13:44:21;101085.88;;;5.83;44.68
72570;BME280;60594;50.204;8.844;2023-02-28T13:51:53;101079.78;;;5.81;46.64
72570;BME280;60594;50.204;8.844;2023-02-28T14:00:34;101068.13;;;5.85;46.43
72570;BME280;60594;50.204;8.844;2023-02-28T14:05:39;101073.88;;;5.74;47.47
72570;BME280;60594;50.204;8.844;2023-02-28T14:08:10;101070.50;;;5.71;45.68
72570;BME280;60594;50.204;8.844;2023-02-28T14:13:45;101068.38;;;5.60;46.20
72570;BME280;60594;50.204;8.844;2023-02-28T14:16:20;101063.66;;;5.67;46.96
72570;BME280;60594;50.204;8.844;2023-02-28T14:18:58;101061.50;;;5.75;48.19
72570;BME280;60594;50.204;8.844;2023-02-28T14:21:32;101054.72;;;5.51;48.99
72570;BME280;60594;50.204;8.844;2023-02-28T14:30:11;101053.88;;;5.69;49.07
72570;BME280;60594;50.204;8.844;2023-02-28T14:33:14;101055.53;;;5.90;49.03
72570;BME280;60594;50.204;8.844;2023-02-28T14:36:01;101044.31;;;5.85;48.58
72570;BME280;60594;50.204;8.844;2023-02-28T14:41:29;101050.91;;;5.75;49.40
72570;BME280;60594;50.204;8.844;2023-02-28T14:44:23;101040.50;;;5.72;48.95
72570;BME280;60594;50.204;8.844;2023-02-28T14:47:31;101019.63;;;5.47;47.94
72570;BME280;60594;50.204;8.844;2023-02-28T14:50:23;101044.41;;;5.45;47.34
72570;BME280;60594;50.204;8.844;2023-02-28T14:52:52;101017.84;;;5.48;49.84
72570;BME280;60594;50.204;8.844;2023-02-28T14:55:26;101045.28;;;5.45;49.25
72570;BME280;60594;50.204;8.844;2023-02-28T14:57:56;101043.47;;;5.27;47.79
72570;BME280;60594;50.204;8.844;2023-02-28T15:00:27;101041.91;;;5.23;48.57
72570;BME280;60594;50.204;8.844;2023-02-28T15:02:56;101041.53;;;5.31;50.50